createdAt,value
2017-08-07T00:01:18.081Z,14.17
2017-08-07T00:03:45.632Z,15.67
2017-08-07T00:06:13.185Z,15.63
2017-08-07T00:08:40.766Z,14.23
2017-08-07T00:11:08.341Z,15.10
2017-08-07T00:13:35.858Z,15.57
2017-08-07T00:16:03.453Z,14.70
2017-08-07T00:18:30.988Z,14.87
2017-08-07T00:20:58.536Z,14.53
2017-08-07T00:23:26.051Z,15.23
2017-08-07T00:25:53.618Z,15.17
2017-08-07T00:28:21.170Z,15.20
2017-08-07T00:30:48.691Z,14.50
2017-08-07T00:33:16.257Z,15.60
2017-08-07T00:35:43.770Z,15.30
2017-08-07T00:38:11.321Z,15.03
2017-08-07T00:40:38.991Z,14.67
2017-08-07T00:43:06.639Z,14.90
2017-08-07T00:45:34.214Z,14.70
2017-08-07T00:48:01.735Z,16.20
2017-08-07T00:50:29.259Z,13.90
2017-08-07T00:52:56.808Z,15.20
2017-08-07T00:55:24.328Z,14.27
2017-08-07T00:57:51.879Z,16.10
2017-08-07T01:00:19.477Z,14.27
2017-08-07T01:02:46.985Z,15.50
2017-08-07T01:05:14.501Z,14.17
2017-08-07T01:07:42.111Z,14.07
2017-08-07T01:10:09.639Z,13.30
2017-08-07T01:12:37.212Z,15.30
2017-08-07T01:15:04.897Z,13.97
2017-08-07T01:17:32.454Z,14.00
2017-08-07T01:19:59.968Z,14.87
2017-08-07T01:22:27.525Z,14.20
2017-08-07T01:24:55.034Z,14.17
2017-08-07T01:27:22.546Z,13.97
2017-08-07T01:29:50.085Z,14.07
2017-08-07T01:32:17.599Z,14.27
2017-08-07T01:34:45.156Z,13.47
2017-08-07T01:37:12.669Z,14.47
2017-08-07T01:39:40.235Z,13.30
2017-08-07T01:42:07.789Z,13.70
2017-08-07T01:44:35.440Z,13.93
2017-08-07T01:47:03.006Z,14.13
2017-08-07T01:49:31.106Z,12.70
2017-08-07T01:51:58.617Z,13.07
2017-08-07T01:54:26.205Z,13.50
2017-08-07T01:56:53.861Z,12.20
2017-08-07T01:59:21.373Z,12.30
2017-08-07T02:01:48.922Z,13.63
2017-08-07T02:04:16.486Z,12.30
2017-08-07T02:06:44.033Z,11.63
2017-08-07T02:09:11.612Z,13.17
2017-08-07T02:11:39.296Z,11.33
2017-08-07T02:14:06.873Z,12.53
2017-08-07T02:16:34.439Z,13.37
2017-08-07T02:19:02.076Z,13.00
2017-08-07T02:21:29.608Z,12.30
2017-08-07T02:23:57.168Z,12.00
2017-08-07T02:26:24.684Z,12.93
2017-08-07T02:28:52.193Z,12.07
2017-08-07T02:31:19.762Z,12.90
2017-08-07T02:33:47.277Z,12.87
2017-08-07T02:36:14.863Z,12.50
2017-08-07T02:38:42.397Z,12.10
2017-08-07T02:41:10.005Z,13.20
2017-08-07T02:43:37.659Z,11.87
2017-08-07T02:46:05.309Z,11.80
2017-08-07T02:48:32.859Z,12.17
2017-08-07T02:51:00.429Z,12.53
2017-08-07T02:53:27.993Z,12.60
2017-08-07T02:55:55.500Z,11.23
2017-08-07T02:58:23.011Z,14.30
2017-08-07T03:00:50.601Z,12.23
2017-08-07T03:03:18.176Z,13.17
2017-08-07T03:05:45.703Z,12.57
2017-08-07T03:08:13.262Z,11.63
2017-08-07T03:10:40.831Z,12.67
2017-08-07T03:13:08.559Z,11.97
2017-08-07T03:15:36.356Z,11.47
2017-08-07T03:18:04.047Z,13.17
2017-08-07T03:20:31.578Z,11.83
2017-08-07T03:22:59.159Z,12.60
2017-08-07T03:25:26.871Z,11.70
2017-08-07T03:27:54.553Z,13.13
2017-08-07T03:30:22.253Z,11.83
2017-08-07T03:32:49.978Z,12.70
2017-08-07T03:35:17.569Z,12.80
2017-08-07T03:37:45.251Z,12.13
2017-08-07T03:40:12.765Z,12.30
2017-08-07T03:42:40.660Z,12.60
2017-08-07T03:45:08.588Z,12.37
2017-08-07T03:47:36.249Z,12.53
2017-08-07T03:50:03.852Z,12.40
2017-08-07T03:52:31.400Z,12.80
2017-08-07T03:54:58.950Z,13.37
2017-08-07T03:57:26.539Z,13.50
2017-08-07T03:59:54.248Z,12.70
2017-08-07T04:02:21.781Z,12.67
2017-08-07T04:04:49.349Z,13.00
2017-08-07T04:07:16.932Z,12.10
2017-08-07T04:09:44.483Z,12.07
2017-08-07T04:12:12.137Z,13.53
2017-08-07T04:14:40.542Z,12.00
2017-08-07T04:17:08.073Z,12.10
2017-08-07T04:19:36.417Z,13.90
2017-08-07T04:22:04.444Z,13.87
2017-08-07T04:24:32.059Z,12.70
2017-08-07T04:26:59.604Z,13.27
2017-08-07T04:29:27.171Z,13.33
2017-08-07T04:31:54.718Z,13.13
2017-08-07T04:34:22.310Z,13.90
2017-08-07T04:36:49.943Z,13.80
2017-08-07T04:39:17.465Z,12.60
2017-08-07T04:41:45.148Z,13.13
2017-08-07T04:44:12.808Z,12.87
2017-08-07T04:46:40.358Z,13.47
2017-08-07T04:49:08.187Z,13.13
2017-08-07T04:51:35.995Z,13.97
2017-08-07T04:54:03.592Z,13.17
2017-08-07T04:56:31.202Z,12.40
2017-08-07T04:58:58.721Z,12.90
2017-08-07T05:01:26.259Z,12.60
2017-08-07T05:03:53.942Z,13.93
2017-08-07T05:06:21.524Z,12.00
2017-08-07T05:08:49.171Z,13.07
2017-08-07T05:11:16.799Z,14.00
2017-08-07T05:13:44.381Z,13.47
2017-08-07T05:16:11.931Z,12.67
2017-08-07T05:18:39.734Z,13.07
2017-08-07T05:21:07.447Z,12.80
2017-08-07T05:23:35.182Z,13.80
2017-08-07T05:26:02.815Z,13.10
2017-08-07T05:28:30.462Z,13.20
2017-08-07T05:30:58.067Z,13.60
2017-08-07T05:33:25.802Z,12.93
2017-08-07T05:35:53.392Z,12.93
2017-08-07T05:38:20.978Z,13.00
2017-08-07T05:40:49.192Z,14.90
2017-08-07T05:43:16.738Z,14.80
2017-08-07T05:45:44.428Z,14.97
2017-08-07T05:48:12.361Z,15.37
2017-08-07T05:50:40.916Z,15.50
2017-08-07T05:53:08.620Z,14.70
2017-08-07T05:55:36.560Z,14.23
2017-08-07T05:58:04.464Z,13.40
2017-08-07T06:00:32.149Z,14.13
2017-08-07T06:02:59.766Z,15.73
2017-08-07T06:05:28.249Z,14.47
2017-08-07T06:07:55.886Z,15.30
2017-08-07T06:10:23.707Z,14.10
2017-08-07T06:12:51.263Z,17.00
2017-08-07T06:15:19.453Z,15.33
2017-08-07T06:17:47.790Z,17.07
2017-08-07T06:20:15.982Z,16.87
2017-08-07T06:25:19.916Z,16.47
2017-08-07T06:27:52.405Z,14.73
2017-08-07T06:33:40.989Z,17.83
2017-08-07T06:36:08.625Z,18.40
2017-08-07T06:38:36.576Z,18.43
2017-08-07T06:41:04.340Z,18.27
2017-08-07T06:43:31.947Z,18.37
2017-08-07T06:45:59.694Z,18.27
2017-08-07T06:48:27.482Z,18.50
2017-08-07T06:50:55.141Z,18.23
2017-08-07T06:53:24.346Z,18.20
2017-08-07T06:55:52.361Z,19.73
2017-08-07T06:58:20.178Z,18.53
2017-08-07T07:00:47.781Z,18.40
2017-08-07T07:03:15.873Z,18.20
2017-08-07T07:05:43.438Z,17.70
2017-08-07T07:08:11.081Z,18.13
2017-08-07T07:10:41.668Z,18.90
2017-08-07T07:13:10.026Z,17.07
2017-08-07T07:15:37.782Z,17.87
2017-08-07T07:18:05.784Z,18.70
2017-08-07T07:30:57.061Z,17.57
2017-08-07T07:36:29.159Z,16.70
2017-08-07T07:42:18.685Z,17.50
2017-08-07T07:44:49.573Z,16.70
2017-08-07T07:47:18.570Z,18.37
2017-08-07T07:53:09.889Z,15.20
2017-08-07T07:55:38.073Z,16.57
2017-08-07T07:58:11.798Z,16.43
2017-08-07T08:00:43.879Z,16.70
2017-08-07T08:03:11.911Z,16.60
2017-08-07T08:05:43.965Z,16.80
2017-08-07T08:08:13.544Z,15.47
2017-08-07T08:10:41.557Z,14.53
2017-08-07T08:13:11.322Z,17.03
2017-08-07T08:15:41.549Z,15.30
2017-08-07T08:18:11.542Z,15.40
2017-08-07T08:20:43.408Z,15.20
2017-08-07T08:23:12.995Z,14.40
2017-08-07T08:25:43.261Z,15.40
2017-08-07T08:28:15.220Z,15.60
2017-08-07T08:33:19.463Z,15.70
2017-08-07T08:38:52.874Z,15.13
2017-08-07T08:41:21.504Z,14.70
2017-08-07T08:43:50.283Z,16.93
2017-08-07T08:46:19.513Z,14.83
2017-08-07T08:48:49.204Z,15.60
2017-08-07T08:51:17.117Z,15.00
2017-08-07T08:53:47.746Z,15.60
2017-08-07T08:56:23.614Z,15.40
2017-08-07T08:58:51.272Z,15.37
2017-08-07T09:01:19.302Z,15.90
2017-08-07T09:03:47.198Z,15.37
2017-08-07T09:06:17.929Z,15.37
2017-08-07T09:08:47.842Z,15.63
2017-08-07T09:11:16.017Z,14.80
2017-08-07T09:13:46.299Z,16.30
2017-08-07T09:16:14.546Z,15.53
2017-08-07T09:18:44.020Z,15.30
2017-08-07T09:21:11.988Z,14.87
2017-08-07T09:23:40.599Z,15.10
2017-08-07T09:26:25.146Z,16.30
2017-08-07T09:28:59.375Z,14.90
2017-08-07T09:31:30.527Z,15.20
2017-08-07T09:33:58.254Z,15.67
2017-08-07T09:36:32.421Z,16.40
2017-08-07T09:39:00.253Z,14.60
2017-08-07T09:41:28.936Z,14.83
2017-08-07T09:43:56.728Z,14.40
2017-08-07T09:46:30.610Z,14.43
2017-08-07T09:49:23.329Z,13.83
2017-08-07T09:51:52.505Z,14.37
2017-08-07T09:54:20.255Z,14.90
2017-08-07T09:56:48.005Z,14.67
2017-08-07T09:59:16.133Z,14.27
2017-08-07T10:01:43.984Z,14.57
2017-08-07T10:04:13.523Z,14.40
2017-08-07T10:06:46.258Z,13.33
2017-08-07T10:09:15.125Z,16.10
2017-08-07T10:11:48.975Z,14.87
2017-08-07T10:14:25.137Z,14.60
2017-08-07T10:16:52.962Z,13.20
2017-08-07T10:19:20.717Z,15.60
2017-08-07T10:21:49.128Z,13.30
2017-08-07T10:24:19.245Z,14.90
2017-08-07T10:26:47.409Z,14.80
2017-08-07T10:29:15.132Z,14.70
2017-08-07T10:31:43.368Z,14.53
2017-08-07T10:42:59.267Z,13.20
2017-08-07T10:48:25.039Z,15.03
2017-08-07T10:50:56.924Z,13.60
2017-08-07T10:56:07.809Z,13.40
2017-08-07T10:58:37.289Z,14.37
2017-08-07T11:01:07.934Z,14.77
2017-08-07T11:03:38.627Z,12.33
2017-08-07T11:06:08.459Z,14.20
2017-08-07T11:08:37.733Z,14.10
2017-08-07T11:11:10.128Z,14.23
2017-08-07T11:16:47.182Z,13.87
2017-08-07T11:19:23.068Z,14.03
2017-08-07T11:22:58.728Z,13.57
2017-08-07T11:25:55.580Z,13.40
2017-08-07T11:28:27.973Z,13.07
2017-08-07T11:30:57.573Z,12.97
2017-08-07T11:33:26.909Z,13.13
2017-08-07T11:39:25.446Z,13.20
2017-08-07T11:41:55.197Z,13.10
2017-08-07T11:44:24.496Z,13.80
2017-08-07T11:46:52.764Z,13.40
2017-08-07T11:49:28.777Z,13.13
2017-08-07T11:51:56.442Z,12.90
2017-08-07T11:54:26.714Z,13.50
2017-08-07T11:56:55.925Z,13.27
2017-08-07T11:59:26.157Z,13.17
2017-08-07T12:02:03.858Z,13.27
2017-08-07T12:08:12.417Z,12.77
2017-08-07T12:11:01.199Z,13.93
2017-08-07T12:13:46.111Z,12.70
2017-08-07T12:22:37.087Z,12.50
2017-08-07T12:28:16.723Z,13.37
2017-08-07T12:30:45.442Z,13.40
2017-08-07T12:33:20.468Z,13.43
2017-08-07T12:35:48.652Z,12.73
2017-08-07T12:38:19.667Z,13.60
2017-08-07T12:40:48.401Z,13.60
2017-08-07T12:43:18.273Z,12.73
2017-08-07T12:45:50.868Z,13.10
2017-08-07T12:51:17.873Z,13.03
2017-08-07T12:53:49.691Z,12.20
2017-08-07T12:56:33.036Z,13.13
2017-08-07T12:59:02.792Z,13.50
2017-08-07T13:01:30.591Z,13.97
2017-08-07T13:04:00.976Z,14.70
2017-08-07T13:06:28.885Z,14.63
2017-08-07T13:08:56.657Z,14.07
2017-08-07T13:11:24.361Z,13.63
2017-08-07T13:13:52.108Z,14.03
2017-08-07T13:16:19.834Z,15.27
2017-08-07T13:18:47.398Z,13.93
2017-08-07T13:21:15.008Z,13.50
2017-08-07T13:23:43.034Z,13.07
2017-08-07T13:26:13.300Z,13.90
2017-08-07T13:28:41.095Z,13.60
2017-08-07T13:31:08.961Z,13.37
2017-08-07T13:33:37.068Z,13.67
2017-08-07T13:36:07.061Z,14.50
2017-08-07T13:38:36.623Z,13.60
2017-08-07T13:41:05.606Z,15.10
2017-08-07T13:43:33.267Z,14.03
2017-08-07T13:46:00.955Z,15.30
2017-08-07T13:48:28.530Z,15.00
2017-08-07T13:50:56.295Z,15.43
2017-08-07T13:53:23.899Z,13.20
2017-08-07T13:55:51.774Z,13.60
2017-08-07T13:58:19.442Z,12.97
2017-08-07T14:00:47.135Z,13.43
2017-08-07T14:03:14.755Z,14.17
2017-08-07T14:05:42.374Z,12.97
2017-08-07T14:08:10.007Z,13.20
2017-08-07T14:10:37.985Z,13.23
2017-08-07T14:13:06.204Z,13.80
2017-08-07T14:15:34.215Z,12.30
2017-08-07T14:18:02.220Z,11.97
2017-08-07T14:20:30.183Z,12.27
2017-08-07T14:22:57.846Z,11.97
2017-08-07T14:25:26.058Z,11.43
2017-08-07T14:27:54.724Z,10.53
2017-08-07T14:30:27.494Z,12.03
2017-08-07T14:32:55.106Z,10.43
2017-08-07T14:35:22.721Z,10.33
2017-08-07T14:37:50.697Z,10.10
2017-08-07T14:40:18.351Z,10.33
2017-08-07T14:42:46.087Z,11.03
2017-08-07T14:45:13.952Z,10.30
2017-08-07T14:47:44.544Z,10.53
2017-08-07T14:50:12.349Z,10.80
2017-08-07T14:52:41.396Z,10.43
2017-08-07T14:55:09.117Z,10.13
2017-08-07T14:57:37.458Z,10.10
2017-08-07T15:00:05.097Z,11.97
2017-08-07T15:02:32.917Z,10.93
2017-08-07T15:05:00.938Z,9.90
2017-08-07T15:07:28.470Z,8.60
2017-08-07T15:09:56.307Z,9.03
2017-08-07T15:12:24.002Z,11.03
2017-08-07T15:14:51.683Z,9.93
2017-08-07T15:17:19.287Z,10.23
2017-08-07T15:19:46.893Z,9.80
2017-08-07T15:22:14.469Z,9.20
2017-08-07T15:24:42.120Z,9.13
2017-08-07T15:27:09.876Z,9.17
2017-08-07T15:29:37.835Z,10.03
2017-08-07T15:32:05.401Z,9.00
2017-08-07T15:34:32.997Z,9.17
2017-08-07T15:37:00.511Z,9.00
2017-08-07T15:39:28.111Z,9.23
2017-08-07T15:41:55.675Z,10.00
2017-08-07T15:44:23.289Z,9.47
2017-08-07T15:46:50.867Z,9.80
2017-08-07T15:49:18.376Z,8.23
2017-08-07T15:51:45.896Z,9.17
2017-08-07T15:54:13.514Z,11.27
2017-08-07T15:56:41.094Z,10.63
2017-08-07T15:59:08.755Z,9.20
2017-08-07T16:01:36.479Z,8.70
2017-08-07T16:04:05.089Z,8.93
2017-08-07T16:06:32.804Z,10.20
2017-08-07T16:09:00.382Z,10.00
2017-08-07T16:11:27.907Z,10.30
2017-08-07T16:13:55.475Z,10.20
2017-08-07T16:16:23.010Z,10.23
2017-08-07T16:18:50.558Z,9.20
2017-08-07T16:21:18.140Z,9.77
2017-08-07T16:23:45.808Z,10.17
2017-08-07T16:26:13.338Z,10.80
2017-08-07T16:28:40.859Z,8.90
2017-08-07T16:31:08.573Z,11.10
2017-08-07T16:33:36.085Z,9.30
2017-08-07T16:36:03.733Z,10.40
2017-08-07T16:38:31.280Z,10.60
2017-08-07T16:40:58.841Z,10.27
2017-08-07T16:43:26.372Z,9.57
2017-08-07T16:45:53.889Z,10.00
2017-08-07T16:48:21.481Z,10.67
2017-08-07T16:50:49.067Z,10.57
2017-08-07T16:53:16.618Z,9.83
2017-08-07T16:55:44.247Z,10.00
2017-08-07T16:58:11.770Z,10.10
2017-08-07T17:00:39.321Z,9.23
2017-08-07T17:03:06.944Z,10.90
2017-08-07T17:05:34.528Z,11.47
2017-08-07T17:08:02.110Z,9.50
2017-08-07T17:10:29.715Z,11.00
2017-08-07T17:12:57.321Z,9.93
2017-08-07T17:15:24.846Z,10.57
2017-08-07T17:17:52.440Z,11.03
2017-08-07T17:20:20.063Z,10.93
2017-08-07T17:22:47.612Z,11.70
2017-08-07T17:25:15.120Z,11.23
2017-08-07T17:27:42.932Z,12.20
2017-08-07T17:30:10.470Z,11.47
2017-08-07T17:32:38.132Z,13.07
2017-08-07T17:35:05.691Z,13.00
2017-08-07T17:37:33.226Z,11.67
2017-08-07T17:40:00.754Z,12.03
2017-08-07T17:42:28.385Z,12.20
2017-08-07T17:44:55.956Z,11.97
2017-08-07T17:47:23.475Z,14.33
2017-08-07T17:49:51.031Z,13.80
2017-08-07T17:52:18.559Z,12.80
2017-08-07T17:54:46.137Z,13.17
2017-08-07T17:57:13.653Z,11.70
2017-08-07T17:59:41.202Z,13.10
2017-08-07T18:02:08.765Z,12.23
2017-08-07T18:04:36.337Z,12.77
2017-08-07T18:07:03.948Z,12.97
2017-08-07T18:09:31.473Z,13.03
2017-08-07T18:11:59.059Z,11.87
2017-08-07T18:14:26.621Z,11.83
2017-08-07T18:16:54.158Z,12.17
2017-08-07T18:19:21.713Z,12.80
2017-08-07T18:22:02.206Z,12.10
2017-08-07T18:24:29.765Z,12.33
2017-08-07T18:26:57.301Z,11.60
2017-08-07T18:29:24.823Z,13.20
2017-08-07T18:31:52.383Z,13.03
2017-08-07T18:34:19.906Z,13.13
2017-08-07T18:36:47.463Z,11.83
2017-08-07T18:39:15.031Z,13.57
2017-08-07T18:41:42.636Z,12.33
2017-08-07T18:44:10.198Z,12.70
2017-08-07T18:46:37.733Z,12.90
2017-08-07T18:49:05.302Z,11.77
2017-08-07T18:51:32.895Z,12.27
2017-08-07T18:54:00.482Z,13.10
2017-08-07T18:56:28.081Z,11.30
2017-08-07T18:58:55.652Z,12.00
2017-08-07T19:01:23.210Z,12.83
2017-08-07T19:03:50.781Z,12.13
2017-08-07T19:06:18.350Z,12.60
2017-08-07T19:08:46.082Z,13.73
2017-08-07T19:11:13.658Z,12.40
2017-08-07T19:13:41.266Z,12.70
2017-08-07T19:16:08.913Z,10.30
2017-08-07T19:18:36.769Z,11.50
2017-08-07T19:21:04.480Z,11.77
2017-08-07T19:23:32.122Z,12.20
2017-08-07T19:25:59.803Z,11.13
2017-08-07T19:28:27.363Z,11.23
2017-08-07T19:30:54.953Z,12.50
2017-08-07T19:33:22.547Z,12.20
2017-08-07T19:35:50.128Z,11.30
2017-08-07T19:38:17.771Z,11.10
2017-08-07T19:40:45.337Z,11.10
2017-08-07T19:43:12.936Z,12.23
2017-08-07T19:45:40.536Z,11.57
2017-08-07T19:48:08.186Z,12.17
2017-08-07T19:50:35.822Z,10.83
2017-08-07T19:53:03.381Z,12.17
2017-08-07T19:55:31.003Z,11.10
2017-08-07T19:57:58.633Z,11.20
2017-08-07T20:00:26.210Z,11.83
2017-08-07T20:02:54.732Z,12.87
2017-08-07T20:05:22.338Z,11.50
2017-08-07T20:07:49.899Z,11.60
2017-08-07T20:10:17.505Z,11.47
2017-08-07T20:12:45.124Z,12.33
2017-08-07T20:15:12.738Z,12.20
2017-08-07T20:17:40.348Z,11.27
2017-08-07T20:20:07.944Z,11.30
2017-08-07T20:22:35.833Z,11.50
2017-08-07T20:25:03.413Z,11.73
2017-08-07T20:27:30.996Z,12.67
2017-08-07T20:29:58.592Z,11.80
2017-08-07T20:32:26.392Z,11.40
2017-08-07T20:34:54.011Z,12.17
2017-08-07T20:37:21.652Z,10.90
2017-08-07T20:39:49.207Z,11.87
2017-08-07T20:42:16.764Z,12.13
2017-08-07T20:44:44.431Z,12.67
2017-08-07T20:47:12.143Z,12.07
2017-08-07T20:49:39.793Z,11.67
2017-08-07T20:52:07.514Z,11.10
2017-08-07T20:54:35.715Z,11.80
2017-08-07T20:57:03.365Z,10.90
2017-08-07T20:59:31.023Z,11.80
2017-08-07T21:01:58.636Z,11.90
2017-08-07T21:04:26.208Z,12.80
2017-08-07T21:06:53.755Z,12.03
2017-08-07T21:09:21.367Z,12.83
2017-08-07T21:11:48.923Z,12.73
2017-08-07T21:14:16.500Z,12.07
2017-08-07T21:16:44.152Z,12.63
2017-08-07T21:19:11.707Z,11.30
2017-08-07T21:21:39.268Z,12.53
2017-08-07T21:24:06.916Z,11.70
2017-08-07T21:26:34.536Z,11.00
2017-08-07T21:29:02.184Z,12.27
2017-08-07T21:31:29.752Z,11.50
2017-08-07T21:33:57.383Z,12.20
2017-08-07T21:36:25.012Z,11.60
2017-08-07T21:38:52.612Z,12.10
2017-08-07T21:41:20.197Z,12.30
2017-08-07T21:43:47.837Z,12.40
2017-08-07T21:46:15.404Z,11.80
2017-08-07T21:48:43.007Z,11.20
2017-08-07T21:51:10.556Z,12.70
2017-08-07T21:53:38.158Z,12.17
2017-08-07T21:56:05.967Z,12.07
2017-08-07T21:58:33.549Z,13.30
2017-08-07T22:01:01.168Z,12.57
2017-08-07T22:03:28.733Z,12.37
2017-08-07T22:05:56.344Z,12.33
2017-08-07T22:08:23.927Z,12.17
2017-08-07T22:10:51.549Z,13.60
2017-08-07T22:13:19.120Z,12.90
2017-08-07T22:15:46.968Z,13.27
2017-08-07T22:18:14.631Z,12.70
2017-08-07T22:20:42.196Z,12.10
2017-08-07T22:23:09.780Z,13.03
2017-08-07T22:25:37.412Z,11.97
2017-08-07T22:28:04.979Z,12.80
2017-08-07T22:30:32.605Z,13.47
2017-08-07T22:33:00.222Z,13.00
2017-08-07T22:35:27.788Z,12.70
2017-08-07T22:37:55.364Z,13.83
2017-08-07T22:40:22.973Z,12.93
2017-08-07T22:42:50.591Z,13.33
2017-08-07T22:45:18.201Z,12.97
2017-08-07T22:47:45.849Z,13.07
2017-08-07T22:50:13.431Z,12.60
2017-08-07T22:52:41.042Z,12.77
2017-08-07T22:55:08.599Z,14.60
2017-08-07T22:57:36.199Z,13.10
2017-08-07T23:00:03.793Z,13.47
2017-08-07T23:02:31.558Z,12.20
2017-08-07T23:04:59.241Z,13.37
2017-08-07T23:07:26.859Z,12.47
2017-08-07T23:09:54.447Z,13.20
2017-08-07T23:12:22.005Z,12.00
2017-08-07T23:14:49.603Z,13.70
2017-08-07T23:17:17.251Z,13.47
2017-08-07T23:19:44.811Z,14.33
2017-08-07T23:22:12.412Z,13.90
2017-08-07T23:24:39.992Z,13.43
2017-08-07T23:27:07.599Z,13.40
2017-08-07T23:29:35.167Z,14.20
2017-08-07T23:32:02.775Z,14.23
2017-08-07T23:34:30.399Z,13.73
2017-08-07T23:36:57.976Z,13.90
2017-08-07T23:39:25.539Z,13.93
2017-08-07T23:41:53.207Z,13.67
2017-08-07T23:44:20.951Z,15.07
2017-08-07T23:46:48.511Z,14.10
2017-08-07T23:49:16.103Z,13.10
2017-08-07T23:51:43.717Z,12.73
2017-08-07T23:54:11.328Z,13.80
2017-08-07T23:56:38.904Z,13.87
2017-08-07T23:59:06.555Z,14.77
